General Aviation Weather

Text Reports

Enter one or more of the following location identifiers separated by a space:

Zip Code, Four-Character ICAO or Three-Character IATA airport codes.

METAR - Aviation Routine Weather Report
KD50 - Crosby, North Dakota
Updated at 11:55 PM GMT on December 26, 2014 (5:55 PM CST):
METAR KD50 262355Z AUTO 19004KT 10SM OVC055 M10/M10 A3014 RMK AO2
TAF - Terminal Area Forecast
KD50 - Crosby, North Dakota
Updated at 11:55 PM GMT on December 26, 2014 (5:55 PM CST):
No TAF is currently available for this location.
Decoded:
No decoded TAF is available.
PIREP - Pilot Weather Report
KD50 - Crosby, North Dakota
Updated at 11:55 PM GMT on December 26, 2014 (5:55 PM CST):
No PIREP is currently available for this location.
AIRMET - Airmens Meteorological Information
KD50 - Crosby, North Dakota
Updated at 11:55 PM GMT on December 26, 2014 (5:55 PM CST):
No AIRMET is currently available for this location.
SIGMET - Significant Meteorological Information
KD50 - Crosby, North Dakota
Updated at 11:55 PM GMT on December 26, 2014 (5:55 PM CST):
No SIGMET is currently available for this location.
NOTAM - Notice to Airmen
KD50 - Crosby, North Dakota
Updated at 11:55 PM GMT on December 26, 2014 (5:55 PM CST):
No NOTAM is currently available for this location.
Forecast Area
KD50 - Crosby, North Dakota
Updated at 11:55 PM GMT on December 26, 2014 (5:55 PM CST):
No NOTAM is currently available for this location.
Aviation Weather Maps